sensor_id;sensor_type;location;lat;lon;timestamp;pressure;altitude;pressure_sealevel;temperature;humidity
56514;BME280;62152;52.078;8.414;2023-11-19T00:02:28;99409.63;;;17.62;58.23
56514;BME280;62152;52.078;8.414;2023-11-19T00:06:28;99407.28;;;17.60;58.22
56514;BME280;62152;52.078;8.414;2023-11-19T00:10:29;99399.84;;;17.61;58.46
56514;BME280;62152;52.078;8.414;2023-11-19T00:14:33;99404.53;;;17.60;58.47
56514;BME280;62152;52.078;8.414;2023-11-19T00:18:34;99404.53;;;17.60;58.46
56514;BME280;62152;52.078;8.414;2023-11-19T00:22:34;99404.53;;;17.60;58.48
56514;BME280;62152;52.078;8.414;2023-11-19T00:26:35;99392.00;;;17.59;58.56
56514;BME280;62152;52.078;8.414;2023-11-19T00:30:39;99389.66;;;17.61;58.24
56514;BME280;62152;52.078;8.414;2023-11-19T00:34:39;99371.63;;;17.60;58.23
56514;BME280;62152;52.078;8.414;2023-11-19T00:38:40;99366.16;;;17.60;58.26
56514;BME280;62152;52.078;8.414;2023-11-19T00:42:41;99353.59;;;17.59;58.28
56514;BME280;62152;52.078;8.414;2023-11-19T00:46:44;99367.72;;;17.58;58.56
56514;BME280;62152;52.078;8.414;2023-11-19T00:50:45;99370.06;;;17.59;58.52
56514;BME280;62152;52.078;8.414;2023-11-19T00:54:46;99345.78;;;17.61;58.46
56514;BME280;62152;52.078;8.414;2023-11-19T00:58:47;99325.00;;;17.60;58.55
56514;BME280;62152;52.078;8.414;2023-11-19T01:02:50;99323.84;;;17.61;58.58
56514;BME280;62152;52.078;8.414;2023-11-19T01:06:51;99314.84;;;17.61;58.57
56514;BME280;62152;52.078;8.414;2023-11-19T01:10:52;99321.50;;;17.60;58.52
56514;BME280;62152;52.078;8.414;2023-11-19T01:14:52;99323.44;;;17.63;58.25
56514;BME280;62152;52.078;8.414;2023-11-19T01:18:56;99329.72;;;17.63;58.24
56514;BME280;62152;52.078;8.414;2023-11-19T01:22:57;99312.09;;;17.61;58.31
56514;BME280;62152;52.078;8.414;2023-11-19T01:26:57;99316.00;;;17.63;58.32
56514;BME280;62152;52.078;8.414;2023-11-19T01:30:58;99308.16;;;17.58;58.56
56514;BME280;62152;52.078;8.414;2023-11-19T01:35:02;99310.13;;;17.61;58.30
56514;BME280;62152;52.078;8.414;2023-11-19T01:39:03;99284.28;;;17.62;58.52
56514;BME280;62152;52.078;8.414;2023-11-19T01:43:04;99298.00;;;17.62;58.42
56514;BME280;62152;52.078;8.414;2023-11-19T01:47:06;99281.97;;;17.64;58.30
56514;BME280;62152;52.078;8.414;2023-11-19T01:51:11;99285.84;;;17.63;58.59
56514;BME280;62152;52.078;8.414;2023-11-19T01:55:13;99269.03;;;17.65;58.50
56514;BME280;62152;52.078;8.414;2023-11-19T01:59:16;99262.75;;;17.64;58.50
56514;BME280;62152;52.078;8.414;2023-11-19T02:03:17;99258.03;;;17.61;58.57
56514;BME280;62152;52.078;8.414;2023-11-19T02:07:21;99260.38;;;17.63;58.32
56514;BME280;62152;52.078;8.414;2023-11-19T02:11:22;99253.75;;;17.64;58.36
56514;BME280;62152;52.078;8.414;2023-11-19T02:15:23;99238.44;;;17.63;58.46
56514;BME280;62152;52.078;8.414;2023-11-19T02:19:24;99223.16;;;17.62;58.61
56514;BME280;62152;52.078;8.414;2023-11-19T02:23:28;99228.69;;;17.65;58.33
56514;BME280;62152;52.078;8.414;2023-11-19T02:27:47;99239.66;;;17.65;58.31
56514;BME280;62152;52.078;8.414;2023-11-19T02:31:50;99238.47;;;17.66;58.41
56514;BME280;62152;52.078;8.414;2023-11-19T02:35:51;99222.03;;;17.66;58.46
56514;BME280;62152;52.078;8.414;2023-11-19T02:39:51;99216.53;;;17.66;58.33
56514;BME280;62152;52.078;8.414;2023-11-19T02:43:55;99218.88;;;17.64;58.31
56514;BME280;62152;52.078;8.414;2023-11-19T02:47:56;99207.50;;;17.62;58.52
56514;BME280;62152;52.078;8.414;2023-11-19T02:51:57;99209.47;;;17.65;58.49
56514;BME280;62152;52.078;8.414;2023-11-19T02:55:57;99205.97;;;17.65;58.38
56514;BME280;62152;52.078;8.414;2023-11-19T03:00:01;99214.56;;;17.67;58.55
56514;BME280;62152;52.078;8.414;2023-11-19T03:04:02;99218.09;;;17.67;58.51
56514;BME280;62152;52.078;8.414;2023-11-19T03:08:03;99205.97;;;17.65;58.57
56514;BME280;62152;52.078;8.414;2023-11-19T03:12:04;99198.09;;;17.63;58.70
56514;BME280;62152;52.078;8.414;2023-11-19T03:16:08;99188.31;;;17.62;58.46
56514;BME280;62152;52.078;8.414;2023-11-19T03:20:11;99178.16;;;17.66;58.50
56514;BME280;62152;52.078;8.414;2023-11-19T03:24:13;99176.97;;;17.67;58.56
56514;BME280;62152;52.078;8.414;2023-11-19T03:28:14;99168.75;;;17.67;58.55
56514;BME280;62152;52.078;8.414;2023-11-19T03:32:17;99184.41;;;17.67;58.55
56514;BME280;62152;52.078;8.414;2023-11-19T03:36:18;99176.59;;;17.65;58.69
56514;BME280;62152;52.078;8.414;2023-11-19T03:40:19;99183.63;;;17.66;58.65
56514;BME280;62152;52.078;8.414;2023-11-19T03:44:20;99173.44;;;17.67;58.45
56514;BME280;62152;52.078;8.414;2023-11-19T03:48:23;99169.13;;;17.66;58.60
56514;BME280;62152;52.078;8.414;2023-11-19T03:52:24;99183.63;;;17.66;58.37
56514;BME280;62152;52.078;8.414;2023-11-19T03:56:25;99202.81;;;17.66;58.57
56514;BME280;62152;52.078;8.414;2023-11-19T04:00:25;99202.81;;;17.66;58.57
56514;BME280;62152;52.078;8.414;2023-11-19T04:04:29;99196.16;;;17.67;58.59
56514;BME280;62152;52.078;8.414;2023-11-19T04:08:30;99182.84;;;17.69;58.57
56514;BME280;62152;52.078;8.414;2023-11-19T04:12:31;99191.06;;;17.66;58.71
56514;BME280;62152;52.078;8.414;2023-11-19T04:16:32;99185.19;;;17.67;58.45
56514;BME280;62152;52.078;8.414;2023-11-19T04:20:36;99175.00;;;17.68;58.42
56514;BME280;62152;52.078;8.414;2023-11-19T04:24:36;99178.13;;;17.70;58.43
56514;BME280;62152;52.078;8.414;2023-11-19T04:28:40;99177.34;;;17.69;58.51
56514;BME280;62152;52.078;8.414;2023-11-19T04:32:40;99175.41;;;17.66;58.60
56514;BME280;62152;52.078;8.414;2023-11-19T04:36:44;99181.28;;;17.68;58.51
56514;BME280;62152;52.078;8.414;2023-11-19T04:40:45;99177.34;;;17.69;58.61
56514;BME280;62152;52.078;8.414;2023-11-19T04:44:46;99175.78;;;17.68;58.43
56514;BME280;62152;52.078;8.414;2023-11-19T04:48:47;99155.81;;;17.68;58.44
56514;BME280;62152;52.078;8.414;2023-11-19T04:52:50;99162.47;;;17.67;58.45
56514;BME280;62152;52.078;8.414;2023-11-19T04:56:51;99144.06;;;17.67;58.69
56514;BME280;62152;52.078;8.414;2023-11-19T05:00:52;99143.66;;;17.69;58.55
56514;BME280;62152;52.078;8.414;2023-11-19T05:04:52;99149.94;;;17.69;58.67
56514;BME280;62152;52.078;8.414;2023-11-19T05:08:58;99146.81;;;17.67;58.73
56514;BME280;62152;52.078;8.414;2023-11-19T05:12:59;99161.69;;;17.70;58.47
56514;BME280;62152;52.078;8.414;2023-11-19T05:17:00;99168.81;;;17.71;58.51
56514;BME280;62152;52.078;8.414;2023-11-19T05:21:01;99187.16;;;17.70;58.64
56514;BME280;62152;52.078;8.414;2023-11-19T05:25:05;99188.31;;;17.69;58.50
56514;BME280;62152;52.078;8.414;2023-11-19T05:29:06;99182.84;;;17.69;58.67
56514;BME280;62152;52.078;8.414;2023-11-19T05:33:07;99179.78;;;17.71;58.52
56514;BME280;62152;52.078;8.414;2023-11-19T05:37:08;99175.84;;;17.72;58.70
56514;BME280;62152;52.078;8.414;2023-11-19T05:41:11;99181.66;;;17.70;58.67
56514;BME280;62152;52.078;8.414;2023-11-19T05:45:12;99173.88;;;17.72;58.69
56514;BME280;62152;52.078;8.414;2023-11-19T05:49:13;99173.44;;;17.70;58.68
56514;BME280;62152;52.078;8.414;2023-11-19T05:53:14;99182.13;;;17.72;58.46
56514;BME280;62152;52.078;8.414;2023-11-19T05:57:17;99175.84;;;17.72;58.51
56514;BME280;62152;52.078;8.414;2023-11-19T06:01:18;99183.69;;;17.73;58.65
56514;BME280;62152;52.078;8.414;2023-11-19T06:05:19;99190.34;;;17.72;58.68
56514;BME280;62152;52.078;8.414;2023-11-19T06:09:20;99192.63;;;17.70;58.73
56514;BME280;62152;52.078;8.414;2023-11-19T06:13:23;99178.97;;;17.74;58.65
56514;BME280;62152;52.078;8.414;2023-11-19T06:17:24;99196.22;;;17.74;58.67
56514;BME280;62152;52.078;8.414;2023-11-19T06:21:25;99203.28;;;17.72;58.59
56514;BME280;62152;52.078;8.414;2023-11-19T06:25:26;99193.09;;;17.72;58.71
56514;BME280;62152;52.078;8.414;2023-11-19T06:29:29;99190.75;;;17.71;58.54
56514;BME280;62152;52.078;8.414;2023-11-19T06:33:30;99201.72;;;17.71;58.60
56514;BME280;62152;52.078;8.414;2023-11-19T06:37:31;99213.06;;;17.73;58.58
56514;BME280;62152;52.078;8.414;2023-11-19T06:41:32;99209.53;;;17.72;58.75
56514;BME280;62152;52.078;8.414;2023-11-19T06:45:35;99212.28;;;17.72;58.58
56514;BME280;62152;52.078;8.414;2023-11-19T06:49:36;99212.69;;;17.71;58.67
56514;BME280;62152;52.078;8.414;2023-11-19T06:53:37;99230.31;;;17.73;58.62
56514;BME280;62152;52.078;8.414;2023-11-19T06:57:38;99225.53;;;17.70;58.75
56514;BME280;62152;52.078;8.414;2023-11-19T07:01:41;99237.38;;;17.78;58.88
56514;BME280;62152;52.078;8.414;2023-11-19T07:05:42;99231.47;;;17.76;58.73
56514;BME280;62152;52.078;8.414;2023-11-19T07:09:43;99226.78;;;17.76;58.69
56514;BME280;62152;52.078;8.414;2023-11-19T07:13:44;99238.91;;;17.75;58.75
56514;BME280;62152;52.078;8.414;2023-11-19T07:17:47;99239.72;;;17.72;59.00
56514;BME280;62152;52.078;8.414;2023-11-19T07:21:48;99241.66;;;17.72;58.96
56514;BME280;62152;52.078;8.414;2023-11-19T07:25:49;99234.63;;;17.74;58.93
56514;BME280;62152;52.078;8.414;2023-11-19T07:29:50;99242.84;;;17.74;58.81
56514;BME280;62152;52.078;8.414;2023-11-19T07:33:53;99253.41;;;17.76;58.88
56514;BME280;62152;52.078;8.414;2023-11-19T07:37:54;99251.47;;;17.73;58.91
56514;BME280;62152;52.078;8.414;2023-11-19T07:41:55;99249.50;;;17.73;58.75
56514;BME280;62152;52.078;8.414;2023-11-19T07:45:55;99251.47;;;17.76;58.90
56514;BME280;62152;52.078;8.414;2023-11-19T07:49:59;99263.59;;;17.72;58.79
56514;BME280;62152;52.078;8.414;2023-11-19T07:54:00;99270.25;;;17.71;58.81
56514;BME280;62152;52.078;8.414;2023-11-19T07:58:01;99273.00;;;17.71;58.95
56514;BME280;62152;52.078;8.414;2023-11-19T08:02:02;99286.31;;;17.72;58.92
56514;BME280;62152;52.078;8.414;2023-11-19T08:06:06;99279.66;;;17.73;58.60
56514;BME280;62152;52.078;8.414;2023-11-19T08:10:08;99282.41;;;17.73;58.75
56514;BME280;62152;52.078;8.414;2023-11-19T08:14:09;99297.31;;;17.72;58.86
56514;BME280;62152;52.078;8.414;2023-11-19T08:18:09;99296.94;;;17.77;58.54
56514;BME280;62152;52.078;8.414;2023-11-19T08:22:13;99308.34;;;17.25;58.64
56514;BME280;62152;52.078;8.414;2023-11-19T08:26:14;99307.59;;;16.80;58.75
56514;BME280;62152;52.078;8.414;2023-11-19T08:30:15;99304.13;;;16.42;59.12
56514;BME280;62152;52.078;8.414;2023-11-19T08:34:16;99300.41;;;16.61;59.07
56514;BME280;62152;52.078;8.414;2023-11-19T08:38:19;99297.16;;;16.52;58.85
56514;BME280;62152;52.078;8.414;2023-11-19T08:42:20;99306.22;;;16.59;59.03
56514;BME280;62152;52.078;8.414;2023-11-19T08:46:21;99300.69;;;16.52;58.35
56514;BME280;62152;52.078;8.414;2023-11-19T08:50:22;99310.69;;;16.71;59.93
56514;BME280;62152;52.078;8.414;2023-11-19T08:54:25;99314.31;;;16.86;59.49
56514;BME280;62152;52.078;8.414;2023-11-19T08:58:26;99312.47;;;17.01;59.69
56514;BME280;62152;52.078;8.414;2023-11-19T09:02:27;99307.31;;;16.88;59.28
56514;BME280;62152;52.078;8.414;2023-11-19T09:06:28;99329.28;;;16.55;60.45
56514;BME280;62152;52.078;8.414;2023-11-19T09:10:31;99311.69;;;17.00;59.20
56514;BME280;62152;52.078;8.414;2023-11-19T09:14:32;99325.88;;;17.09;59.11
56514;BME280;62152;52.078;8.414;2023-11-19T09:18:33;99317.22;;;17.07;59.22
56514;BME280;62152;52.078;8.414;2023-11-19T09:22:34;99331.50;;;17.31;60.50
56514;BME280;62152;52.078;8.414;2023-11-19T09:26:37;99328.66;;;17.75;59.19
56514;BME280;62152;52.078;8.414;2023-11-19T09:30:38;99335.31;;;17.19;59.82
56514;BME280;62152;52.078;8.414;2023-11-19T09:34:39;99324.81;;;17.28;61.15
56514;BME280;62152;52.078;8.414;2023-11-19T09:38:39;99344.03;;;17.94;59.81
56514;BME280;62152;52.078;8.414;2023-11-19T09:42:45;99338.25;;;18.20;59.57
56514;BME280;62152;52.078;8.414;2023-11-19T09:46:46;99341.41;;;18.29;59.83
56514;BME280;62152;52.078;8.414;2023-11-19T09:50:47;99342.22;;;18.34;60.01
56514;BME280;62152;52.078;8.414;2023-11-19T09:54:48;99330.84;;;18.35;60.01
56514;BME280;62152;52.078;8.414;2023-11-19T09:58:52;99336.72;;;18.37;60.18
56514;BME280;62152;52.078;8.414;2023-11-19T10:02:55;99328.50;;;18.34;60.02
56514;BME280;62152;52.078;8.414;2023-11-19T10:06:56;99329.28;;;18.34;60.23
56514;BME280;62152;52.078;8.414;2023-11-19T10:10:57;99323.78;;;18.38;60.15
56514;BME280;62152;52.078;8.414;2023-11-19T10:15:01;99324.56;;;18.42;59.86
56514;BME280;62152;52.078;8.414;2023-11-19T10:19:02;99332.41;;;18.43;59.88
56514;BME280;62152;52.078;8.414;2023-11-19T10:23:03;99322.22;;;18.44;59.80
56514;BME280;62152;52.078;8.414;2023-11-19T10:27:06;99325.78;;;18.48;60.13
56514;BME280;62152;52.078;8.414;2023-11-19T10:31:10;99321.81;;;18.38;60.82
56514;BME280;62152;52.078;8.414;2023-11-19T10:35:11;99328.81;;;18.14;61.18
56514;BME280;62152;52.078;8.414;2023-11-19T10:39:12;99328.84;;;18.32;60.80
56514;BME280;62152;52.078;8.414;2023-11-19T10:43:12;99328.09;;;18.46;60.34
56514;BME280;62152;52.078;8.414;2023-11-19T10:47:19;99334.41;;;18.53;60.30
56514;BME280;62152;52.078;8.414;2023-11-19T10:51:20;99333.97;;;18.34;61.17
56514;BME280;62152;52.078;8.414;2023-11-19T10:55:26;99329.31;;;17.61;59.03
56514;BME280;62152;52.078;8.414;2023-11-19T10:59:30;99331.69;;;17.59;59.59
56514;BME280;62152;52.078;8.414;2023-11-19T11:03:39;99329.28;;;17.54;58.03
56514;BME280;62152;52.078;8.414;2023-11-19T11:07:42;99312.03;;;17.50;58.33
56514;BME280;62152;52.078;8.414;2023-11-19T11:11:47;99308.84;;;17.41;57.92
56514;BME280;62152;52.078;8.414;2023-11-19T11:15:49;99314.81;;;16.95;59.15
56514;BME280;62152;52.078;8.414;2023-11-19T11:19:53;99307.66;;;16.87;59.06
56514;BME280;62152;52.078;8.414;2023-11-19T11:24:23;99311.97;;;16.84;59.32
56514;BME280;62152;52.078;8.414;2023-11-19T11:28:37;99317.59;;;16.61;60.48
56514;BME280;62152;52.078;8.414;2023-11-19T11:32:45;99316.38;;;17.00;60.27
56514;BME280;62152;52.078;8.414;2023-11-19T11:37:01;99300.41;;;16.64;60.44
56514;BME280;62152;52.078;8.414;2023-11-19T11:41:17;99300.19;;;18.08;57.29
56514;BME280;62152;52.078;8.414;2023-11-19T11:45:19;99295.53;;;18.26;57.58
56514;BME280;62152;52.078;8.414;2023-11-19T11:49:25;99295.53;;;18.34;57.73
56514;BME280;62152;52.078;8.414;2023-11-19T11:53:30;99315.16;;;18.39;58.00
56514;BME280;62152;52.078;8.414;2023-11-19T11:57:36;99307.72;;;18.50;57.64
56514;BME280;62152;52.078;8.414;2023-11-19T12:01:37;99304.56;;;18.52;57.73
56514;BME280;62152;52.078;8.414;2023-11-19T12:05:41;99295.56;;;18.55;58.24
56514;BME280;62152;52.078;8.414;2023-11-19T12:09:47;99302.25;;;18.57;57.97
56514;BME280;62152;52.078;8.414;2023-11-19T12:13:56;99295.97;;;18.46;58.40
56514;BME280;62152;52.078;8.414;2023-11-19T12:17:57;99290.84;;;18.48;58.06
56514;BME280;62152;52.078;8.414;2023-11-19T12:21:59;99279.09;;;18.48;58.04
56514;BME280;62152;52.078;8.414;2023-11-19T12:26:02;99279.47;;;18.50;58.07
56514;BME280;62152;52.078;8.414;2023-11-19T12:30:04;99283.41;;;18.49;58.36
56514;BME280;62152;52.078;8.414;2023-11-19T12:34:09;99288.09;;;18.59;58.58
56514;BME280;62152;52.078;8.414;2023-11-19T12:38:18;99275.19;;;18.56;59.08
56514;BME280;62152;52.078;8.414;2023-11-19T12:42:22;99268.50;;;18.53;59.22
56514;BME280;62152;52.078;8.414;2023-11-19T12:46:35;99266.94;;;18.56;59.57
56514;BME280;62152;52.078;8.414;2023-11-19T12:50:51;99263.00;;;18.57;59.50
56514;BME280;62152;52.078;8.414;2023-11-19T12:54:52;99264.59;;;18.62;59.78
56514;BME280;62152;52.078;8.414;2023-11-19T12:58:55;99260.69;;;18.77;60.15
56514;BME280;62152;52.078;8.414;2023-11-19T13:02:57;99252.84;;;18.72;60.86
56514;BME280;62152;52.078;8.414;2023-11-19T13:06:58;99253.25;;;18.70;61.57
56514;BME280;62152;52.078;8.414;2023-11-19T13:10:59;99233.63;;;18.68;61.91
56514;BME280;62152;52.078;8.414;2023-11-19T13:15:03;99232.44;;;18.69;61.77
56514;BME280;62152;52.078;8.414;2023-11-19T13:19:03;99224.16;;;18.66;61.74
56514;BME280;62152;52.078;8.414;2023-11-19T13:23:06;99230.84;;;18.61;61.72
56514;BME280;62152;52.078;8.414;2023-11-19T13:27:06;99234.75;;;18.56;61.57
56514;BME280;62152;52.078;8.414;2023-11-19T13:31:10;99237.91;;;18.55;61.73
56514;BME280;62152;52.078;8.414;2023-11-19T13:35:11;99233.97;;;18.56;61.68
56514;BME280;62152;52.078;8.414;2023-11-19T13:39:11;99233.19;;;18.59;61.42
56514;BME280;62152;52.078;8.414;2023-11-19T13:43:12;99233.19;;;18.59;61.35
56514;BME280;62152;52.078;8.414;2023-11-19T13:47:16;99238.28;;;18.57;61.71
56514;BME280;62152;52.078;8.414;2023-11-19T13:51:19;99230.06;;;18.57;61.59
56514;BME280;62152;52.078;8.414;2023-11-19T13:55:20;99220.63;;;18.58;61.56
56514;BME280;62152;52.078;8.414;2023-11-19T13:59:21;99216.72;;;18.55;61.69
56514;BME280;62152;52.078;8.414;2023-11-19T14:03:24;99219.09;;;18.53;61.54
56514;BME280;62152;52.078;8.414;2023-11-19T14:07:25;99221.41;;;18.51;61.63
56514;BME280;62152;52.078;8.414;2023-11-19T14:11:26;99211.63;;;18.50;61.66
56514;BME280;62152;52.078;8.414;2023-11-19T14:15:27;99219.06;;;18.50;61.56
56514;BME280;62152;52.078;8.414;2023-11-19T14:19:30;99223.78;;;18.49;61.54
56514;BME280;62152;52.078;8.414;2023-11-19T14:23:31;99220.66;;;18.47;61.56
56514;BME280;62152;52.078;8.414;2023-11-19T14:27:32;99215.16;;;18.51;61.66
56514;BME280;62152;52.078;8.414;2023-11-19T14:31:33;99212.00;;;18.49;61.69
56514;BME280;62152;52.078;8.414;2023-11-19T14:35:36;99223.00;;;18.49;61.58
56514;BME280;62152;52.078;8.414;2023-11-19T14:39:37;99207.28;;;18.24;60.20
56514;BME280;62152;52.078;8.414;2023-11-19T14:43:39;99212.00;;;18.20;60.67
56514;BME280;62152;52.078;8.414;2023-11-19T14:47:40;99200.25;;;18.34;59.77
56514;BME280;62152;52.078;8.414;2023-11-19T14:51:43;99215.94;;;18.37;59.76
56514;BME280;62152;52.078;8.414;2023-11-19T14:55:44;99222.22;;;18.41;59.79
56514;BME280;62152;52.078;8.414;2023-11-19T14:59:45;99211.22;;;18.52;59.83
56514;BME280;62152;52.078;8.414;2023-11-19T15:03:47;99227.31;;;18.57;60.02
56514;BME280;62152;52.078;8.414;2023-11-19T15:07:50;99231.25;;;18.63;59.97
56514;BME280;62152;52.078;8.414;2023-11-19T15:11:53;99228.50;;;18.63;60.21
56514;BME280;62152;52.078;8.414;2023-11-19T15:15:53;99231.63;;;18.65;60.38
56514;BME280;62152;52.078;8.414;2023-11-19T15:19:54;99217.88;;;18.65;60.29
56514;BME280;62152;52.078;8.414;2023-11-19T15:23:58;99226.94;;;18.69;60.49
56514;BME280;62152;52.078;8.414;2023-11-19T15:27:59;99231.63;;;18.65;60.57
56514;BME280;62152;52.078;8.414;2023-11-19T15:31:59;99226.53;;;18.60;60.89
56514;BME280;62152;52.078;8.414;2023-11-19T15:36:00;99238.69;;;18.63;60.57
56514;BME280;62152;52.078;8.414;2023-11-19T15:40:05;99234.75;;;18.64;60.84
56514;BME280;62152;52.078;8.414;2023-11-19T15:44:06;99238.69;;;18.63;60.75
56514;BME280;62152;52.078;8.414;2023-11-19T15:48:06;99233.97;;;18.63;60.85
56514;BME280;62152;52.078;8.414;2023-11-19T15:52:07;99244.19;;;18.66;61.01
56514;BME280;62152;52.078;8.414;2023-11-19T15:56:11;99235.16;;;18.62;60.63
56514;BME280;62152;52.078;8.414;2023-11-19T16:00:12;99234.38;;;18.65;60.85
56514;BME280;62152;52.078;8.414;2023-11-19T16:04:13;99241.81;;;18.65;60.82
56514;BME280;62152;52.078;8.414;2023-11-19T16:08:14;99252.06;;;18.68;60.88
56514;BME280;62152;52.078;8.414;2023-11-19T16:12:17;99243.84;;;18.68;61.10
56514;BME280;62152;52.078;8.414;2023-11-19T16:16:18;99245.78;;;18.71;60.96
56514;BME280;62152;52.078;8.414;2023-11-19T16:20:19;99247.75;;;18.70;61.33
56514;BME280;62152;52.078;8.414;2023-11-19T16:24:20;99253.25;;;18.70;61.19
56514;BME280;62152;52.078;8.414;2023-11-19T16:28:23;99249.69;;;18.73;61.01
56514;BME280;62152;52.078;8.414;2023-11-19T16:32:24;99254.41;;;18.76;60.89
56514;BME280;62152;52.078;8.414;2023-11-19T16:36:25;99254.41;;;18.73;61.05
56514;BME280;62152;52.078;8.414;2023-11-19T16:40:26;99249.69;;;18.73;61.17
56514;BME280;62152;52.078;8.414;2023-11-19T16:44:29;99250.50;;;18.74;61.36
56514;BME280;62152;52.078;8.414;2023-11-19T16:48:30;99245.00;;;18.74;61.23
56514;BME280;62152;52.078;8.414;2023-11-19T16:52:31;99257.56;;;18.75;61.16
56514;BME280;62152;52.078;8.414;2023-11-19T16:56:32;99247.75;;;18.77;60.73
56514;BME280;62152;52.078;8.414;2023-11-19T17:00:35;99262.28;;;18.81;60.76
56514;BME280;62152;52.078;8.414;2023-11-19T17:04:36;99253.25;;;18.88;61.15
56514;BME280;62152;52.078;8.414;2023-11-19T17:08:37;99259.50;;;18.85;61.32
56514;BME280;62152;52.078;8.414;2023-11-19T17:12:38;99259.09;;;18.86;61.34
56514;BME280;62152;52.078;8.414;2023-11-19T17:16:42;99255.19;;;18.84;61.67
56514;BME280;62152;52.078;8.414;2023-11-19T17:20:42;99261.84;;;18.86;61.66
56514;BME280;62152;52.078;8.414;2023-11-19T17:24:43;99261.47;;;18.88;61.76
56514;BME280;62152;52.078;8.414;2023-11-19T17:28:44;99255.97;;;18.84;61.69
56514;BME280;62152;52.078;8.414;2023-11-19T17:32:48;99251.28;;;18.78;61.50
56514;BME280;62152;52.078;8.414;2023-11-19T17:36:48;99257.53;;;18.78;61.60
56514;BME280;62152;52.078;8.414;2023-11-19T17:40:49;99252.84;;;18.75;61.60
56514;BME280;62152;52.078;8.414;2023-11-19T17:44:50;99266.19;;;18.73;61.67
56514;BME280;62152;52.078;8.414;2023-11-19T17:48:53;99258.34;;;18.75;61.43
56514;BME280;62152;52.078;8.414;2023-11-19T17:52:54;99259.13;;;18.72;61.69
56514;BME280;62152;52.078;8.414;2023-11-19T17:56:55;99266.19;;;18.73;61.96
56514;BME280;62152;52.078;8.414;2023-11-19T18:00:56;99270.50;;;18.81;62.04
56514;BME280;62152;52.078;8.414;2023-11-19T18:04:59;99257.97;;;18.80;62.00
56514;BME280;62152;52.078;8.414;2023-11-19T18:09:00;99263.44;;;18.80;62.26
56514;BME280;62152;52.078;8.414;2023-11-19T18:13:01;99265.78;;;18.85;62.04
56514;BME280;62152;52.078;8.414;2023-11-19T18:17:02;99261.09;;;18.82;62.21
56514;BME280;62152;52.078;8.414;2023-11-19T18:21:05;99270.91;;;18.76;62.35
56514;BME280;62152;52.078;8.414;2023-11-19T18:25:07;99267.75;;;18.81;61.96
56514;BME280;62152;52.078;8.414;2023-11-19T18:29:08;99266.97;;;18.88;61.79
56514;BME280;62152;52.078;8.414;2023-11-19T18:33:09;99258.31;;;18.86;61.70
56514;BME280;62152;52.078;8.414;2023-11-19T18:37:12;99259.91;;;18.80;61.70
56514;BME280;62152;52.078;8.414;2023-11-19T18:41:13;99264.22;;;18.84;61.51
56514;BME280;62152;52.078;8.414;2023-11-19T18:45:14;99261.06;;;18.86;61.56
56514;BME280;62152;52.078;8.414;2023-11-19T18:49:15;99262.25;;;18.85;61.71
56514;BME280;62152;52.078;8.414;2023-11-19T18:53:18;99264.59;;;18.86;61.62
56514;BME280;62152;52.078;8.414;2023-11-19T18:57:19;99271.28;;;18.85;61.55
56514;BME280;62152;52.078;8.414;2023-11-19T19:01:20;99264.59;;;18.86;61.80
56514;BME280;62152;52.078;8.414;2023-11-19T19:05:21;99263.03;;;18.85;61.78
56514;BME280;62152;52.078;8.414;2023-11-19T19:09:24;99253.63;;;18.86;61.71
56514;BME280;62152;52.078;8.414;2023-11-19T19:13:25;99263.44;;;18.84;61.89
56514;BME280;62152;52.078;8.414;2023-11-19T19:17:26;99256.38;;;18.79;61.64
56514;BME280;62152;52.078;8.414;2023-11-19T19:21:29;99254.03;;;18.81;61.45
56514;BME280;62152;52.078;8.414;2023-11-19T19:25:33;99249.69;;;18.84;61.43
56514;BME280;62152;52.078;8.414;2023-11-19T19:29:33;99252.81;;;18.86;61.24
56514;BME280;62152;52.078;8.414;2023-11-19T19:33:34;99237.53;;;18.85;61.19
56514;BME280;62152;52.078;8.414;2023-11-19T19:37:35;99232.81;;;18.85;61.40
56514;BME280;62152;52.078;8.414;2023-11-19T19:41:38;99225.75;;;18.88;61.49
56514;BME280;62152;52.078;8.414;2023-11-19T19:45:39;99223.38;;;18.86;61.44
56514;BME280;62152;52.078;8.414;2023-11-19T19:49:40;99212.81;;;18.89;61.48
56514;BME280;62152;52.078;8.414;2023-11-19T19:53:41;99215.94;;;18.91;61.22
56514;BME280;62152;52.078;8.414;2023-11-19T19:57:44;99202.56;;;18.93;61.25
56514;BME280;62152;52.078;8.414;2023-11-19T20:01:45;99203.38;;;18.90;61.36
56514;BME280;62152;52.078;8.414;2023-11-19T20:05:46;99213.59;;;18.89;61.38
56514;BME280;62152;52.078;8.414;2023-11-19T20:09:47;99197.09;;;18.89;61.60
56514;BME280;62152;52.078;8.414;2023-11-19T20:13:50;99201.81;;;18.89;61.54
56514;BME280;62152;52.078;8.414;2023-11-19T20:17:51;99195.94;;;18.90;61.52
56514;BME280;62152;52.078;8.414;2023-11-19T20:21:52;99190.84;;;18.89;61.68
56514;BME280;62152;52.078;8.414;2023-11-19T20:25:53;99194.75;;;18.91;61.47
56514;BME280;62152;52.078;8.414;2023-11-19T20:29:56;99197.09;;;18.93;61.35
56514;BME280;62152;52.078;8.414;2023-11-19T20:33:57;99192.78;;;18.92;61.47
56514;BME280;62152;52.078;8.414;2023-11-19T20:37:58;99195.53;;;18.92;61.52
56514;BME280;62152;52.078;8.414;2023-11-19T20:41:58;99196.31;;;18.92;61.50
56514;BME280;62152;52.078;8.414;2023-11-19T20:46:03;99193.56;;;18.92;61.53
56514;BME280;62152;52.078;8.414;2023-11-19T20:50:05;99191.59;;;18.93;61.33
56514;BME280;62152;52.078;8.414;2023-11-19T20:54:06;99190.41;;;18.94;61.32
56514;BME280;62152;52.078;8.414;2023-11-19T20:58:07;99188.47;;;18.94;61.36
56514;BME280;62152;52.078;8.414;2023-11-19T21:02:11;99192.38;;;18.93;61.51
56514;BME280;62152;52.078;8.414;2023-11-19T21:06:11;99194.75;;;18.95;61.51
56514;BME280;62152;52.078;8.414;2023-11-19T21:10:12;99182.56;;;18.92;61.39
56514;BME280;62152;52.078;8.414;2023-11-19T21:14:13;99178.25;;;18.95;61.29
56514;BME280;62152;52.078;8.414;2023-11-19T21:18:16;99173.53;;;18.92;61.58
56514;BME280;62152;52.078;8.414;2023-11-19T21:22:17;99171.19;;;18.94;61.63